Time;durP1;ratioP1;P1;durP2;ratioP2;P2;SDS_P1;SDS_P2;PMS_P1;PMS_P2;Temp;Humidity;BMP_temperature;BMP_pressure;BME280_temperature;BME280_humidity;BME280_pressure;Samples;Min_cycle;Max_cycle;Signal;HPM_P1;HPM_P2
2022/05/10 00:02:22;;;;;;;4.43;3.70;;;;;;;11.84;92.52;96399.44;5012671;28;20036;-58
2022/05/10 00:04:51;;;;;;;4.47;4.18;;;;;;;11.78;93.28;96398.13;5011846;28;20018;-59
2022/05/10 00:07:18;;;;;;;6.80;5.45;;;;;;;11.74;94.36;96391.47;5014680;28;20025;-59
2022/05/10 00:09:43;;;;;;;5.00;4.50;;;;;;;11.74;94.05;96400.19;5012637;28;20028;-59
2022/05/10 00:12:09;;;;;;;4.03;3.72;;;;;;;11.77;93.81;96387.72;5012095;28;20026;-59
2022/05/10 00:14:35;;;;;;;3.70;3.40;;;;;;;11.71;94.53;96389.91;5017609;28;20021;-59
2022/05/10 00:17:01;;;;;;;4.15;3.85;;;;;;;11.61;95.20;96394.31;5012160;28;20072;-59
2022/05/10 00:19:30;;;;;;;3.67;3.47;;;;;;;11.59;94.65;96393.59;5013080;28;20067;-59
2022/05/10 00:21:56;;;;;;;4.88;4.47;;;;;;;11.57;94.86;96390.25;5012351;28;20026;-59
2022/05/10 00:24:22;;;;;;;5.88;3.50;;;;;;;11.56;95.14;96391.22;5014249;28;20026;-59
2022/05/10 00:26:48;;;;;;;4.15;3.78;;;;;;;11.54;95.45;96390.53;5013595;28;20084;-59
2022/05/10 00:29:13;;;;;;;4.00;3.70;;;;;;;11.52;95.91;96395.09;5013494;28;20056;-59
2022/05/10 00:31:39;;;;;;;4.05;3.85;;;;;;;11.51;95.85;96385.50;5012153;28;20025;-59
2022/05/10 00:34:05;;;;;;;9.05;4.07;;;;;;;11.54;95.64;96390.53;5012866;28;20446;-59
2022/05/10 00:36:31;;;;;;;4.85;4.50;;;;;;;11.51;95.88;96390.78;5013669;28;20026;-59
2022/05/10 00:38:56;;;;;;;3.78;3.58;;;;;;;11.45;95.63;96389.50;5009060;28;20022;-59
2022/05/10 00:41:32;;;;;;;4.32;4.00;;;;;;;11.44;95.77;96393.94;5016344;28;20021;-59
2022/05/10 00:44:06;;;;;;;3.90;3.70;;;;;;;11.34;96.89;96387.78;5012122;28;20442;-58
2022/05/10 00:46:38;;;;;;;3.90;3.63;;;;;;;11.34;95.55;96389.59;5012882;28;20515;-59
2022/05/10 00:49:12;;;;;;;4.60;3.72;;;;;;;11.28;96.08;96398.84;5008267;28;20018;-59
2022/05/10 00:51:54;;;;;;;3.33;3.20;;;;;;;11.22;96.69;96399.38;5011878;28;20033;-59
2022/05/10 00:55:01;;;;;;;4.03;3.60;;;;;;;11.21;96.61;96397.69;5015454;28;20049;-59
2022/05/10 00:57:30;;;;;;;4.13;3.72;;;;;;;11.16;96.67;96393.66;5003810;28;20120;-58
2022/05/10 01:00:02;;;;;;;4.05;3.58;;;;;;;11.15;96.37;96399.03;5013945;28;20042;-59
2022/05/10 01:02:47;;;;;;;3.92;3.50;;;;;;;11.14;96.25;96390.28;5011130;28;20033;-59
2022/05/10 01:05:25;;;;;;;6.22;4.13;;;;;;;11.13;96.57;96396.50;5013488;28;20079;-59
2022/05/10 01:08:23;;;;;;;4.75;4.03;;;;;;;11.13;96.54;96391.25;5011920;28;20049;-58
2022/05/10 01:11:15;;;;;;;3.83;3.63;;;;;;;11.12;96.54;96388.75;5013095;28;20025;-59
2022/05/10 01:13:58;;;;;;;4.53;4.22;;;;;;;11.09;96.94;96389.84;5011677;28;20117;-59
2022/05/10 01:16:24;;;;;;;4.28;3.90;;;;;;;11.06;97.15;96387.47;5014392;28;20122;-58
2022/05/10 01:18:51;;;;;;;5.60;5.18;;;;;;;11.03;97.45;96387.72;5011231;28;20021;-58
2022/05/10 01:21:38;;;;;;;4.10;3.88;;;;;;;11.01;97.41;96387.00;5012540;28;20021;-59
2022/05/10 01:24:06;;;;;;;3.90;3.70;;;;;;;10.97;97.66;96385.59;5012890;28;20103;-59
2022/05/10 01:26:34;;;;;;;4.22;3.83;;;;;;;11.00;96.66;96375.63;5019638;28;20547;-58
2022/05/10 01:29:08;;;;;;;3.42;3.20;;;;;;;10.96;97.77;96378.66;5015658;28;20030;-59
2022/05/10 01:34:43;;;;;;;4.05;3.75;;;;;;;10.91;97.86;96383.44;5016385;28;20345;-59
2022/05/10 01:37:14;;;;;;;4.45;4.03;;;;;;;10.90;97.87;96374.72;5016018;28;20520;-58
2022/05/10 01:40:09;;;;;;;4.10;3.75;;;;;;;10.87;98.33;96378.44;5015440;28;20021;-58
2022/05/10 01:42:48;;;;;;;4.40;4.10;;;;;;;10.87;98.10;96380.25;5000574;28;20037;-58
2022/05/10 01:45:30;;;;;;;4.05;3.75;;;;;;;10.87;98.26;96369.72;5016182;28;20022;-58
2022/05/10 01:48:00;;;;;;;3.92;3.63;;;;;;;10.87;98.18;96380.25;5015490;28;20018;-58
2022/05/10 01:50:31;;;;;;;4.25;3.95;;;;;;;10.81;98.77;96373.69;5017683;28;20018;-58
2022/05/10 01:53:20;;;;;;;3.70;3.50;;;;;;;10.75;98.63;96371.56;5015516;28;20030;-58
2022/05/10 01:55:49;;;;;;;4.78;3.67;;;;;;;10.74;98.78;96370.72;5015967;28;20026;-58
2022/05/10 01:58:22;;;;;;;3.78;3.42;;;;;;;10.75;98.37;96376.84;5015465;28;20104;-58
2022/05/10 02:00:55;;;;;;;4.13;3.83;;;;;;;10.79;98.53;96372.13;5015630;28;20052;-58
2022/05/10 02:03:28;;;;;;;4.55;3.80;;;;;;;10.75;99.08;96371.56;5017169;28;20038;-58
2022/05/10 02:06:06;;;;;;;3.97;3.78;;;;;;;10.77;99.09;96374.06;5017015;28;20072;-58
2022/05/10 02:08:45;;;;;;;4.10;3.90;;;;;;;10.70;99.49;96368.44;5024986;28;20495;-58
2022/05/10 02:11:14;;;;;;;4.90;4.30;;;;;;;10.67;99.24;96369.56;5017152;28;20022;-58
2022/05/10 02:13:56;;;;;;;3.92;3.63;;;;;;;10.66;99.04;96367.91;5015994;28;20032;-57
2022/05/10 02:16:22;;;;;;;5.05;3.75;;;;;;;10.70;98.35;96366.66;5017915;28;20022;-58
2022/05/10 02:18:57;;;;;;;4.50;4.20;;;;;;;10.60;99.37;96363.97;5016131;28;20022;-58
2022/05/10 02:21:46;;;;;;;7.03;3.83;;;;;;;10.60;99.11;96368.38;5015738;28;20125;-58
2022/05/10 02:24:26;;;;;;;6.80;3.85;;;;;;;10.61;99.62;96364.81;5016141;28;20030;-59
2022/05/10 02:26:59;;;;;;;3.97;3.78;;;;;;;10.57;99.26;96366.00;5015688;28;20048;-58
2022/05/10 02:29:31;;;;;;;4.45;3.67;;;;;;;10.50;99.79;96368.31;5014091;28;20025;-59
2022/05/10 02:35:10;;;;;;;4.20;4.00;;;;;;;10.41;100.00;96363.78;5014758;28;20029;-59
2022/05/10 02:37:35;;;;;;;4.22;3.90;;;;;;;10.39;100.00;96368.31;5017135;28;20374;-59
2022/05/10 02:40:02;;;;;;;4.30;3.90;;;;;;;10.33;100.00;96361.72;5014839;28;20034;-58
2022/05/10 02:42:27;;;;;;;4.32;3.92;;;;;;;10.29;100.00;96361.16;5017967;28;20040;-58
2022/05/10 02:44:56;;;;;;;4.22;3.83;;;;;;;10.32;100.00;96360.06;5015105;28;20552;-59
2022/05/10 02:47:37;;;;;;;3.75;3.53;;;;;;;10.27;100.00;96370.94;5015120;28;20030;-59
2022/05/10 02:50:05;;;;;;;5.10;3.60;;;;;;;10.24;100.00;96360.69;5013295;28;20030;-58
2022/05/10 02:52:30;;;;;;;5.10;3.95;;;;;;;10.23;100.00;96353.75;5015427;28;20021;-59
2022/05/10 02:55:01;;;;;;;10.60;4.28;;;;;;;10.26;100.00;96345.59;5014341;28;20022;-58
2022/05/10 02:57:28;;;;;;;7.10;4.07;;;;;;;10.23;100.00;96351.09;5015161;28;20112;-59
2022/05/10 02:59:58;;;;;;;4.28;3.88;;;;;;;10.21;100.00;96358.28;5015356;28;20486;-58
2022/05/10 03:02:29;;;;;;;4.03;3.58;;;;;;;10.20;100.00;96350.53;5014773;28;20030;-59
2022/05/10 03:04:57;;;;;;;4.72;3.88;;;;;;;10.17;100.00;96348.97;5013243;28;20473;-58
2022/05/10 03:07:28;;;;;;;4.03;3.72;;;;;;;10.13;100.00;96343.13;5017723;28;20041;-58
2022/05/10 03:09:53;;;;;;;4.18;3.88;;;;;;;10.08;100.00;96344.47;5013034;28;20026;-58
2022/05/10 03:12:19;;;;;;;4.13;3.83;;;;;;;10.06;100.00;96343.72;5012435;28;20037;-59
2022/05/10 03:14:45;;;;;;;5.95;4.00;;;;;;;10.06;100.00;96343.72;5014325;28;20033;-58
2022/05/10 03:17:13;;;;;;;4.07;3.78;;;;;;;10.02;100.00;96349.25;5013355;28;20536;-58
2022/05/10 03:19:40;;;;;;;5.93;4.25;;;;;;;10.03;100.00;96340.38;5014893;28;20029;-58
2022/05/10 03:22:07;;;;;;;4.00;3.70;;;;;;;10.00;100.00;96343.25;5014710;28;20388;-58
2022/05/10 03:24:33;;;;;;;8.68;3.67;;;;;;;9.99;100.00;96343.41;5015241;28;20374;-59
2022/05/10 03:27:00;;;;;;;4.10;3.70;;;;;;;9.98;100.00;96341.72;5013855;28;20032;-59
2022/05/10 03:29:26;;;;;;;4.10;3.80;;;;;;;9.94;100.00;96342.91;5013740;28;20057;-59
2022/05/10 03:31:52;;;;;;;4.32;3.78;;;;;;;9.93;100.00;96335.97;5014846;28;20241;-59
2022/05/10 03:37:03;;;;;;;3.87;3.57;;;;;;;9.90;100.00;96337.06;5015296;28;20519;-59
2022/05/10 03:39:29;;;;;;;6.43;3.72;;;;;;;9.86;100.00;96338.28;5018472;28;20021;-59
2022/05/10 03:41:54;;;;;;;4.85;4.15;;;;;;;9.79;100.00;96342.34;5015829;28;20021;-58
2022/05/10 03:44:20;;;;;;;4.03;3.72;;;;;;;9.77;100.00;96339.84;5018192;28;20404;-59
2022/05/10 03:46:45;;;;;;;4.32;3.80;;;;;;;9.77;100.00;96331.09;5014148;28;20022;-59
2022/05/10 03:49:11;;;;;;;3.78;3.58;;;;;;;9.77;100.00;96326.69;5010782;28;20028;-58
2022/05/10 03:51:37;;;;;;;4.00;3.80;;;;;;;9.73;100.00;96328.72;5012619;28;20156;-59
2022/05/10 03:54:02;;;;;;;4.93;4.53;;;;;;;9.68;100.00;96328.25;5011516;28;20089;-58
2022/05/10 03:56:28;;;;;;;3.97;3.78;;;;;;;9.69;100.00;96327.28;5012535;28;20420;-58
2022/05/10 03:58:53;;;;;;;4.25;3.95;;;;;;;9.67;100.00;96329.22;5010096;28;20045;-59
2022/05/10 04:01:20;;;;;;;4.35;4.05;;;;;;;9.70;100.00;96323.72;5012464;28;20044;-59
2022/05/10 04:03:46;;;;;;;3.83;3.63;;;;;;;9.72;100.00;96328.84;5008568;28;20029;-58
2022/05/10 04:06:11;;;;;;;4.18;3.85;;;;;;;9.74;100.00;96330.41;5010569;28;20022;-59
2022/05/10 04:08:37;;;;;;;4.85;4.25;;;;;;;9.70;100.00;96331.59;5018160;28;20160;-59
2022/05/10 04:11:08;;;;;;;4.50;4.20;;;;;;;9.70;100.00;96331.59;5010709;28;20041;-59
2022/05/10 04:13:33;;;;;;;7.00;4.20;;;;;;;9.77;100.00;96333.75;5018009;28;20021;-59
2022/05/10 04:15:59;;;;;;;8.95;4.13;;;;;;;9.80;100.00;96338.75;5014040;28;20021;-59
2022/05/10 04:18:25;;;;;;;6.72;4.55;;;;;;;9.75;100.00;96339.13;5013449;28;20021;-59
2022/05/10 04:20:51;;;;;;;4.47;4.18;;;;;;;9.71;100.00;96342.94;5015348;28;20034;-59
2022/05/10 04:23:16;;;;;;;4.07;3.80;;;;;;;9.74;100.00;96343.53;5013205;28;20095;-59
2022/05/10 04:25:42;;;;;;;4.65;4.35;;;;;;;9.79;100.00;96347.59;5012537;28;20034;-59
2022/05/10 04:28:08;;;;;;;5.05;4.53;;;;;;;9.80;100.00;96344.00;5016211;28;20523;-58
2022/05/10 04:30:33;;;;;;;6.80;4.22;;;;;;;9.78;100.00;96340.66;5015429;28;20052;-59
2022/05/10 04:32:59;;;;;;;5.10;4.45;;;;;;;9.77;100.00;96355.63;5010705;28;20060;-58
2022/05/10 04:35:24;;;;;;;4.43;4.13;;;;;;;9.83;100.00;96349.03;5012900;28;20042;-59
2022/05/10 04:37:49;;;;;;;4.53;4.13;;;;;;;9.83;100.00;96349.88;5013737;28;20117;-59
2022/05/10 04:42:59;;;;;;;5.15;4.07;;;;;;;9.87;100.00;96353.09;5011567;28;20032;-59
2022/05/10 04:45:24;;;;;;;4.10;3.75;;;;;;;9.88;100.00;96352.16;5015363;28;20018;-59
2022/05/10 04:47:50;;;;;;;4.70;4.30;;;;;;;9.92;100.00;96350.94;5010824;28;20021;-59
2022/05/10 04:50:16;;;;;;;4.05;3.85;;;;;;;9.94;100.00;96361.31;5014947;28;20029;-59
2022/05/10 04:52:41;;;;;;;4.63;4.32;;;;;;;9.98;100.00;96355.72;5011512;28;20028;-59
2022/05/10 04:55:09;;;;;;;4.47;4.18;;;;;;;10.01;100.00;96357.28;5013292;28;20144;-59
2022/05/10 04:57:38;;;;;;;4.30;3.97;;;;;;;10.06;100.00;96355.09;5013378;28;20024;-59
2022/05/10 05:00:06;;;;;;;4.15;3.75;;;;;;;10.08;100.00;96357.63;5018907;28;20049;-59
2022/05/10 05:02:32;;;;;;;5.03;4.60;;;;;;;10.14;100.00;96357.13;5023541;28;20029;-59
2022/05/10 05:04:57;;;;;;;4.25;3.95;;;;;;;10.17;100.00;96362.13;5019173;28;20030;-59
2022/05/10 05:07:23;;;;;;;4.32;4.03;;;;;;;10.21;100.00;96362.75;5027746;28;20037;-59
2022/05/10 05:09:48;;;;;;;4.43;4.03;;;;;;;10.22;100.00;96370.50;5023216;28;20053;-58
2022/05/10 05:12:13;;;;;;;4.32;3.97;;;;;;;10.24;100.00;96363.31;5023539;28;20125;-59
2022/05/10 05:14:39;;;;;;;4.60;4.20;;;;;;;10.31;100.00;96366.28;5025068;28;20400;-59
2022/05/10 05:17:04;;;;;;;5.43;4.93;;;;;;;10.46;99.54;96365.09;5022565;28;20034;-59
2022/05/10 05:19:30;;;;;;;5.40;4.10;;;;;;;10.41;99.31;96364.63;5020094;28;20133;-59
2022/05/10 05:21:55;;;;;;;4.78;4.38;;;;;;;10.34;100.00;96373.09;5020822;28;20045;-59
2022/05/10 05:24:20;;;;;;;4.65;4.25;;;;;;;10.31;100.00;96379.44;5022320;28;20152;-58
2022/05/10 05:26:47;;;;;;;4.50;4.20;;;;;;;10.36;100.00;96379.91;5022990;28;20036;-59
2022/05/10 05:29:12;;;;;;;4.53;4.22;;;;;;;10.56;99.73;96377.50;5020045;28;20040;-59
2022/05/10 05:31:39;;;;;;;6.30;4.72;;;;;;;10.73;99.11;96373.50;5021282;28;20034;-59
2022/05/10 05:34:04;;;;;;;5.38;4.18;;;;;;;10.88;98.70;96376.66;5028564;28;20049;-59
2022/05/10 05:36:30;;;;;;;4.00;3.20;;;;;;;11.12;97.35;96376.41;5022075;28;20021;-59
2022/05/10 05:38:55;;;;;;;4.30;3.88;;;;;;;11.27;96.86;96378.72;5016431;28;20468;-59
2022/05/10 05:41:21;;;;;;;4.38;4.07;;;;;;;11.39;96.45;96371.56;5018367;28;20092;-59
2022/05/10 05:43:46;;;;;;;4.43;4.03;;;;;;;11.54;96.36;96380.81;5015667;28;20026;-59
2022/05/10 05:46:12;;;;;;;7.82;3.90;;;;;;;11.64;96.17;96388.78;5022811;28;20041;-59
2022/05/10 05:48:37;;;;;;;4.53;4.13;;;;;;;11.75;95.47;96388.69;5018903;28;20029;-58
2022/05/10 05:51:04;;;;;;;4.85;4.32;;;;;;;11.92;94.83;96389.03;5022165;28;20108;-59
2022/05/10 05:53:29;;;;;;;4.30;3.90;;;;;;;11.89;94.29;96391.94;5022679;28;20040;-59
2022/05/10 05:56:09;;;;;;;5.78;4.38;;;;;;;11.99;94.93;96392.78;5015908;28;20030;-58
2022/05/10 05:58:36;;;;;;;4.90;4.18;;;;;;;12.13;93.46;96393.44;5017581;28;20500;-58
2022/05/10 06:01:02;;;;;;;6.32;4.32;;;;;;;12.25;93.17;96397.63;5017136;28;20382;-59
2022/05/10 06:03:28;;;;;;;6.28;4.30;;;;;;;12.44;92.81;96396.84;5018126;28;20033;-56
2022/05/10 06:05:53;;;;;;;4.65;4.30;;;;;;;12.71;92.74;96395.34;5023156;28;20022;-56
2022/05/10 06:08:19;;;;;;;8.68;4.30;;;;;;;12.93;91.73;96397.84;5023715;28;20445;-57
2022/05/10 06:10:49;;;;;;;4.85;4.45;;;;;;;13.16;90.69;96404.53;5017813;28;20026;-59
2022/05/10 06:13:18;;;;;;;8.50;3.95;;;;;;;13.50;88.23;96402.41;5021548;28;20045;-58
2022/05/10 06:15:44;;;;;;;5.32;4.22;;;;;;;13.80;87.43;96405.81;5027204;28;20097;-58
2022/05/10 06:18:09;;;;;;;4.10;3.80;;;;;;;13.99;84.98;96405.72;5021543;28;20109;-56
2022/05/10 06:20:35;;;;;;;4.47;3.58;;;;;;;14.32;83.81;96403.50;5014424;28;20021;-57
2022/05/10 06:23:01;;;;;;;3.42;3.22;;;;;;;14.55;82.87;96403.09;5024061;28;20061;-58
2022/05/10 06:25:27;;;;;;;4.82;4.32;;;;;;;14.87;81.39;96401.75;5025017;28;20033;-59
2022/05/10 06:27:54;;;;;;;4.10;3.80;;;;;;;15.12;81.24;96396.66;5026016;28;20159;-58
2022/05/10 06:30:20;;;;;;;5.22;3.42;;;;;;;15.50;78.87;96403.59;5018086;28;20033;-58
2022/05/10 06:32:46;;;;;;;3.05;2.70;;;;;;;15.71;76.40;96400.59;5021326;28;20030;-58
2022/05/10 06:35:12;;;;;;;3.58;3.33;;;;;;;15.92;75.99;96404.72;5025469;28;20033;-58
2022/05/10 06:40:21;;;;;;;3.45;3.10;;;;;;;16.33;73.80;96397.75;5019976;28;20156;-58
2022/05/10 06:42:46;;;;;;;2.72;2.60;;;;;;;16.50;73.22;96391.66;5020303;28;20116;-58
2022/05/10 06:45:18;;;;;;;3.30;3.10;;;;;;;16.81;72.00;96399.84;5020220;28;20033;-59
2022/05/10 06:47:46;;;;;;;3.10;2.90;;;;;;;16.82;71.66;96392.72;5019996;28;20025;-58
2022/05/10 06:50:14;;;;;;;3.13;2.80;;;;;;;17.16;70.32;96397.09;5022003;28;20033;-58
2022/05/10 06:52:40;;;;;;;3.92;3.00;;;;;;;17.50;68.84;96392.56;5028074;28;20148;-59
2022/05/10 06:55:07;;;;;;;2.70;2.58;;;;;;;17.85;67.14;96395.84;5019834;28;20022;-58
2022/05/10 06:57:32;;;;;;;4.00;2.70;;;;;;;18.16;66.13;96395.09;5017421;28;20112;-59
2022/05/10 06:59:58;;;;;;;2.55;2.45;;;;;;;18.47;66.26;96394.31;5025639;28;20125;-59
2022/05/10 07:02:26;;;;;;;2.70;2.50;;;;;;;18.73;64.31;96390.50;5024788;28;20102;-57
2022/05/10 07:04:53;;;;;;;4.30;2.60;;;;;;;19.25;64.25;96393.50;5024882;28;20025;-59
2022/05/10 07:07:18;;;;;;;2.47;2.38;;;;;;;19.31;62.53;96390.09;5019888;28;20091;-59
2022/05/10 07:09:44;;;;;;;2.38;2.22;;;;;;;19.51;62.73;96394.94;5022865;28;20444;-59
2022/05/10 07:12:11;;;;;;;2.95;2.60;;;;;;;19.40;62.28;96390.84;5022309;28;20120;-58
2022/05/10 07:14:36;;;;;;;3.92;2.60;;;;;;;19.65;61.47;96393.28;5021274;28;20026;-58
2022/05/10 07:17:02;;;;;;;2.72;2.53;;;;;;;19.84;58.59;96389.28;5027826;28;20492;-58
2022/05/10 07:19:28;;;;;;;2.60;2.40;;;;;;;20.09;57.21;96389.84;5022966;28;20404;-56
2022/05/10 07:21:53;;;;;;;2.58;2.47;;;;;;;20.16;56.42;96392.59;5027634;28;20018;-58
2022/05/10 07:24:19;;;;;;;2.50;2.40;;;;;;;20.30;55.90;96382.91;5021086;28;20029;-58
2022/05/10 07:26:48;;;;;;;2.72;2.53;;;;;;;20.31;56.06;96387.25;5016674;28;20544;-58
2022/05/10 07:29:15;;;;;;;7.00;2.38;;;;;;;20.37;57.31;96388.34;5025129;28;20624;-58
2022/05/10 07:31:41;;;;;;;2.83;2.63;;;;;;;20.39;55.82;96392.50;5025735;28;20087;-58
2022/05/10 07:34:06;;;;;;;4.13;2.35;;;;;;;20.36;56.05;96386.69;5023239;28;20115;-58
2022/05/10 07:36:35;;;;;;;2.22;2.13;;;;;;;20.67;56.74;96389.13;5019081;28;20037;-58
2022/05/10 07:39:06;;;;;;;2.17;2.08;;;;;;;20.61;58.14;96393.38;5023224;28;20033;-58
2022/05/10 07:41:32;;;;;;;2.92;2.30;;;;;;;20.74;59.60;96389.19;5018120;28;20166;-58
2022/05/10 07:43:58;;;;;;;2.22;2.13;;;;;;;21.39;55.55;96396.41;5023899;28;20040;-58
2022/05/10 07:46:23;;;;;;;2.58;2.35;;;;;;;21.28;53.81;96389.75;5023368;28;20036;-58
2022/05/10 07:48:49;;;;;;;2.55;2.40;;;;;;;21.50;52.75;96393.22;5023260;28;20079;-58
2022/05/10 07:51:15;;;;;;;2.72;2.20;;;;;;;21.73;50.84;96394.88;5026199;28;20388;-59
2022/05/10 07:53:41;;;;;;;2.70;2.50;;;;;;;21.95;51.44;96384.09;5022738;28;20029;-59
2022/05/10 07:56:08;;;;;;;2.50;2.30;;;;;;;22.20;51.40;96389.78;5024159;28;20029;-59
2022/05/10 07:58:35;;;;;;;2.50;2.30;;;;;;;22.41;48.70;96393.38;5021920;28;20022;-58
2022/05/10 08:01:04;;;;;;;5.88;2.33;;;;;;;22.39;48.77;96396.28;5025821;28;20030;-59
2022/05/10 08:03:30;;;;;;;2.05;1.95;;;;;;;22.47;48.60;96392.63;5023135;28;20030;-58
2022/05/10 08:05:56;;;;;;;2.95;2.40;;;;;;;22.14;49.63;96382.53;5021427;28;20138;-58
2022/05/10 08:08:23;;;;;;;3.20;2.40;;;;;;;22.42;48.13;96395.03;5021462;28;20385;-59
2022/05/10 08:10:50;;;;;;;3.65;2.10;;;;;;;22.53;48.38;96391.81;5026655;28;20028;-58
2022/05/10 08:13:19;;;;;;;3.17;2.35;;;;;;;22.17;50.04;96387.50;5023021;28;20033;-59
2022/05/10 08:15:45;;;;;;;2.58;2.47;;;;;;;21.58;51.37;96387.72;5024682;28;20021;-59
2022/05/10 08:18:11;;;;;;;2.30;2.20;;;;;;;21.51;52.21;96383.31;5022543;28;20037;-58
2022/05/10 08:20:37;;;;;;;1.98;1.88;;;;;;;23.45;44.07;96390.59;5027103;28;20021;-59
2022/05/10 08:23:06;;;;;;;2.45;2.35;;;;;;;22.04;48.10;96385.56;5023764;28;20036;-59
2022/05/10 08:25:31;;;;;;;3.20;2.50;;;;;;;21.77;48.31;96388.09;5020513;28;20025;-58
2022/05/10 08:27:57;;;;;;;3.28;2.70;;;;;;;21.55;50.14;96379.22;5021050;28;20444;-59
2022/05/10 08:30:22;;;;;;;2.53;2.33;;;;;;;21.30;50.43;96387.69;5023278;28;20029;-59
2022/05/10 08:32:47;;;;;;;2.83;2.53;;;;;;;20.73;52.70;96380.31;5018361;28;20050;-58
2022/05/10 08:35:13;;;;;;;2.88;2.50;;;;;;;21.61;50.19;96381.97;5025153;28;20546;-59
2022/05/10 08:37:38;;;;;;;4.95;2.80;;;;;;;21.24;50.27;96388.47;5021020;28;20052;-58
2022/05/10 08:40:06;;;;;;;5.07;2.42;;;;;;;21.47;49.94;96378.38;5023551;28;20028;-58
2022/05/10 08:42:34;;;;;;;4.60;2.78;;;;;;;21.82;50.47;96379.47;5018665;28;20057;-59
2022/05/10 08:45:09;;;;;;;2.53;2.25;;;;;;;22.11;47.95;96381.09;5020890;28;20080;-58
2022/05/10 08:47:36;;;;;;;2.53;2.30;;;;;;;22.82;44.94;96372.91;5017826;28;20030;-59
2022/05/10 08:50:06;;;;;;;2.20;2.10;;;;;;;22.62;44.60;96384.41;5019281;28;20060;-58
2022/05/10 08:52:39;;;;;;;2.47;2.28;;;;;;;22.80;44.50;96381.16;5019872;28;20013;-59
2022/05/10 08:55:06;;;;;;;3.38;2.47;;;;;;;22.94;44.19;96373.97;5015188;28;20097;-59
2022/05/10 08:57:38;;;;;;;2.05;1.95;;;;;;;23.39;43.50;96370.72;5024496;28;20018;-59
2022/05/10 09:00:09;;;;;;;3.08;2.05;;;;;;;23.89;41.72;96364.06;5024629;28;20550;-58
2022/05/10 09:02:56;;;;;;;2.40;2.20;;;;;;;24.20;42.00;96365.22;5019556;28;20120;-59
2022/05/10 09:05:37;;;;;;;2.17;2.08;;;;;;;24.10;42.81;96362.19;5025079;28;20068;-58
2022/05/10 09:08:17;;;;;;;2.30;2.20;;;;;;;24.15;41.14;96360.50;5014643;28;20018;-59
2022/05/10 09:10:49;;;;;;;4.40;2.13;;;;;;;24.27;42.11;96351.75;5015560;28;20489;-58
2022/05/10 09:13:17;;;;;;;2.22;2.13;;;;;;;24.56;42.58;96349.59;5019947;28;20033;-58
2022/05/10 09:15:46;;;;;;;2.20;2.00;;;;;;;24.74;41.46;96343.47;5024337;28;20443;-59
2022/05/10 09:18:26;;;;;;;2.15;1.95;;;;;;;25.36;38.69;96350.13;5019770;28;20633;-58
2022/05/10 09:21:14;;;;;;;1.80;1.70;;;;;;;24.83;41.38;96344.88;5017444;28;20103;-58
2022/05/10 09:24:10;;;;;;;2.13;2.03;;;;;;;25.67;39.19;96343.84;5013724;28;20132;-58
2022/05/10 09:26:42;;;;;;;1.95;1.85;;;;;;;25.87;39.16;96345.53;5018457;28;20040;-58
2022/05/10 09:29:10;;;;;;;2.33;1.73;;;;;;;24.85;42.33;96342.81;5012353;28;20029;-59
2022/05/10 09:37:13;;;;;;;4.57;3.20;;;;;;;25.17;44.43;96334.72;5018063;28;20116;-59
2022/05/10 09:39:45;;;;;;;2.45;2.30;;;;;;;24.19;44.62;96334.00;5013330;28;20519;-58
2022/05/10 09:42:25;;;;;;;3.58;2.28;;;;;;;25.11;42.23;96324.00;5018770;28;20505;-58
2022/05/10 09:45:05;;;;;;;2.10;2.00;;;;;;;24.73;41.37;96333.75;5022414;28;20068;-58
2022/05/10 09:47:32;;;;;;;2.90;2.60;;;;;;;24.16;44.19;96337.13;5019666;28;20048;-58
2022/05/10 09:50:14;;;;;;;4.35;2.30;;;;;;;25.05;41.42;96330.25;5016163;28;20018;-58
2022/05/10 09:52:40;;;;;;;2.40;2.17;;;;;;;25.17;41.73;96328.50;5020818;28;20494;-58
2022/05/10 09:55:23;;;;;;;2.83;1.95;;;;;;;24.74;44.01;96327.31;5026040;28;20029;-58
2022/05/10 09:57:49;;;;;;;2.00;1.90;;;;;;;24.17;41.06;96330.69;5027942;28;20950;-58
2022/05/10 10:00:15;;;;;;;2.08;1.98;;;;;;;25.13;40.17;96327.28;5024765;28;20111;-58
2022/05/10 10:02:42;;;;;;;1.95;1.85;;;;;;;25.03;40.91;96325.09;5026183;28;20080;-59
2022/05/10 10:05:25;;;;;;;1.83;1.73;;;;;;;24.38;42.53;96315.28;5027558;28;20029;-58
2022/05/10 10:07:57;;;;;;;2.35;2.20;;;;;;;25.67;40.05;96329.56;5020995;28;20513;-58
2022/05/10 10:10:24;;;;;;;5.90;2.42;;;;;;;25.38;40.28;96323.75;5018052;28;20512;-58
2022/05/10 10:12:50;;;;;;;2.58;1.90;;;;;;;25.01;40.78;96319.09;5021154;28;20026;-58
2022/05/10 10:15:31;;;;;;;1.70;1.60;;;;;;;24.83;41.62;96317.16;5027928;28;20022;-58
2022/05/10 10:18:04;;;;;;;6.93;2.25;;;;;;;25.95;38.57;96309.34;5020097;28;20025;-58
2022/05/10 10:20:43;;;;;;;2.20;2.00;;;;;;;25.52;39.24;96313.72;5015933;28;20028;-58
2022/05/10 10:23:39;;;;;;;1.88;1.77;;;;;;;26.40;34.95;96319.84;5026251;28;20029;-58
2022/05/10 10:26:24;;;;;;;3.13;1.90;;;;;;;25.76;37.62;96308.53;5020248;28;20437;-58
2022/05/10 10:28:56;;;;;;;2.15;1.95;;;;;;;26.46;36.87;96308.13;5020633;28;20036;-58
2022/05/10 10:31:29;;;;;;;2.65;1.60;;;;;;;25.68;36.93;96306.94;5024978;28;20489;-58
2022/05/10 10:34:05;;;;;;;2.38;1.90;;;;;;;26.10;35.68;96308.97;5023008;28;20037;-58
2022/05/10 10:36:44;;;;;;;2.65;1.90;;;;;;;26.58;35.62;96313.56;5022404;28;20061;-58
2022/05/10 10:39:37;;;;;;;2.13;2.00;;;;;;;25.83;35.72;96304.69;5029644;28;20477;-59
2022/05/10 10:42:12;;;;;;;2.15;1.75;;;;;;;26.23;38.14;96300.75;5015019;28;20418;-58
2022/05/10 10:44:43;;;;;;;2.03;1.92;;;;;;;26.89;36.11;96300.06;5028410;28;20041;-59
2022/05/10 10:47:09;;;;;;;3.60;2.00;;;;;;;27.51;34.45;96295.31;5023798;28;20033;-58
2022/05/10 10:50:01;;;;;;;4.30;1.97;;;;;;;27.35;35.93;96294.13;5029888;28;20025;-58
2022/05/10 10:52:29;;;;;;;1.67;1.58;;;;;;;27.55;34.92;96296.53;5018908;28;20280;-58
2022/05/10 10:54:55;;;;;;;1.98;1.60;;;;;;;27.17;35.12;96282.38;5013832;28;20109;-59
2022/05/10 10:57:35;;;;;;;2.08;1.98;;;;;;;27.53;33.68;96282.44;5022084;28;20067;-59
2022/05/10 11:00:21;;;;;;;5.25;1.80;;;;;;;28.03;32.68;96281.03;5026033;28;20050;-58
2022/05/10 11:03:08;;;;;;;1.98;1.70;;;;;;;28.09;32.87;96273.84;5021570;28;20049;-58
2022/05/10 11:05:51;;;;;;;2.72;1.70;;;;;;;27.75;34.08;96274.53;5014509;28;20064;-59
2022/05/10 11:08:22;;;;;;;2.67;1.40;;;;;;;28.03;31.33;96271.06;5028667;28;20044;-59
2022/05/10 11:10:59;;;;;;;3.92;1.80;;;;;;;27.43;32.58;96270.28;5019570;28;20481;-58
2022/05/10 11:13:34;;;;;;;2.22;1.45;;;;;;;27.69;32.06;96264.66;5014038;28;20048;-59
2022/05/10 11:16:08;;;;;;;1.63;1.52;;;;;;;27.77;30.75;96263.47;5014484;28;20080;-58
2022/05/10 11:19:12;;;;;;;1.98;1.70;;;;;;;27.22;32.12;96265.47;5025459;28;20132;-58
2022/05/10 11:21:57;;;;;;;1.30;1.30;;;;;;;27.62;30.76;96262.06;5021943;28;20592;-58
2022/05/10 11:24:44;;;;;;;4.72;1.70;;;;;;;27.66;31.79;96257.84;5007410;28;20049;-56
2022/05/10 11:27:21;;;;;;;1.50;1.40;;;;;;;27.41;32.87;96256.19;5021693;28;20022;-59
2022/05/10 11:30:02;;;;;;;1.73;1.45;;;;;;;27.50;31.14;96255.81;5021554;28;20026;-59
2022/05/10 11:32:51;;;;;;;1.73;1.50;;;;;;;27.88;31.10;96258.03;5017879;28;20034;-57
2022/05/10 11:36:05;;;;;;;1.60;1.50;;;;;;;28.09;29.15;96253.06;5006734;28;20108;-58
2022/05/10 11:38:48;;;;;;;2.20;1.52;;;;;;;27.94;29.84;96239.22;4977576;28;20205;-59
2022/05/10 11:41:29;;;;;;;1.75;1.40;;;;;;;27.60;29.88;96235.25;5015924;28;20050;-59
2022/05/10 11:44:06;;;;;;;1.33;1.10;;;;;;;27.96;29.24;96235.19;5021450;28;20076;-58
2022/05/10 11:46:57;;;;;;;1.55;1.30;;;;;;;28.10;28.46;96232.22;5021375;28;20067;-58
2022/05/10 11:49:35;;;;;;;1.92;1.55;;;;;;;28.43;26.91;96230.69;5016176;28;20045;-59
2022/05/10 11:52:34;;;;;;;1.08;1.08;;;;;;;28.13;25.23;96221.72;5023579;28;20033;-58
2022/05/10 11:55:33;;;;;;;1.23;1.23;;;;;;;28.00;28.81;96225.53;5021077;28;20037;-59
2022/05/10 11:58:03;;;;;;;2.05;1.38;;;;;;;28.14;26.47;96220.66;5025059;28;20769;-59
2022/05/10 12:00:31;;;;;;;1.00;1.00;;;;;;;28.39;25.86;96215.97;5026357;28;20530;-59
2022/05/10 12:03:02;;;;;;;1.55;1.38;;;;;;;28.12;26.72;96211.97;5018803;28;20033;-58
2022/05/10 12:05:35;;;;;;;2.70;1.20;;;;;;;28.96;24.90;96214.25;5013715;28;20060;-58
2022/05/10 12:08:19;;;;;;;3.67;1.10;;;;;;;28.77;23.50;96210.97;5012770;28;20084;-58
2022/05/10 12:10:45;;;;;;;1.43;1.37;;;;;;;28.81;22.73;96209.44;5014592;28;20022;-58